Time;durP1;ratioP1;P1;durP2;ratioP2;P2;SDS_P1;SDS_P2;PMS_P1;PMS_P2;Temp;Humidity;BMP_temperature;BMP_pressure;BME280_temperature;BME280_humidity;BME280_pressure;Samples;Min_cycle;Max_cycle;Signal;HPM_P1;HPM_P2
2023/10/06 00:01:00;;;;;;;1.25;0.30;;;;;;;16.18;72.19;101436.16;5067589;28;20468;-69
2023/10/06 00:03:26;;;;;;;0.82;0.30;;;;;;;16.32;70.75;101436.56;5065944;28;20418;-69
2023/10/06 00:05:53;;;;;;;2.78;0.30;;;;;;;16.42;70.24;101437.25;5064468;28;20093;-69
2023/10/06 00:08:20;;;;;;;1.13;0.20;;;;;;;16.41;70.50;101430.34;5067579;28;20048;-69
2023/10/06 00:10:54;;;;;;;1.10;0.20;;;;;;;16.29;70.67;101419.28;5063261;28;20041;-69
2023/10/06 00:13:28;;;;;;;3.17;0.40;;;;;;;16.54;69.08;101420.22;5066749;28;20033;-69
2023/10/06 00:15:55;;;;;;;2.10;0.25;;;;;;;16.77;67.40;101420.44;5067030;28;20024;-69
2023/10/06 00:18:23;;;;;;;0.90;0.20;;;;;;;16.92;67.58;101414.38;5066473;28;20043;-69
2023/10/06 00:20:49;;;;;;;2.55;0.57;;;;;;;17.05;66.47;101413.06;5064295;28;20028;-69
2023/10/06 00:23:22;;;;;;;2.63;0.20;;;;;;;17.14;65.94;101418.16;5061250;28;20484;-70
2023/10/06 00:25:53;;;;;;;1.00;0.20;;;;;;;17.06;66.99;101418.16;5066598;28;20439;-69
2023/10/06 00:28:27;;;;;;;1.35;0.22;;;;;;;16.77;68.57;101417.81;5060500;28;20507;-69
2023/10/06 00:30:57;;;;;;;0.80;0.20;;;;;;;16.54;69.79;101425.47;5057673;28;20033;-69
2023/10/06 00:33:32;;;;;;;1.23;0.20;;;;;;;16.26;71.04;101428.31;5063200;28;20106;-69
2023/10/06 00:36:18;;;;;;;1.17;0.20;;;;;;;16.07;72.06;101427.75;5063846;28;20033;-69
2023/10/06 00:38:45;;;;;;;0.73;0.22;;;;;;;15.93;72.95;101437.03;5064250;28;20036;-69
2023/10/06 00:41:14;;;;;;;1.25;0.20;;;;;;;15.76;74.10;101432.66;5063689;28;20051;-69
2023/10/06 00:43:43;;;;;;;0.93;0.30;;;;;;;15.59;74.84;101435.19;5067625;28;20660;-69
2023/10/06 00:46:10;;;;;;;0.95;0.30;;;;;;;15.44;75.69;101423.56;5064344;28;20052;-69
2023/10/06 00:48:40;;;;;;;1.13;0.30;;;;;;;15.32;76.30;101432.63;5065339;28;20035;-69
2023/10/06 00:51:12;;;;;;;1.83;0.30;;;;;;;15.23;76.50;101438.78;5061306;28;20024;-69
2023/10/06 00:53:38;;;;;;;1.88;0.30;;;;;;;15.17;76.83;101436.78;5068532;28;20029;-69
2023/10/06 00:56:28;;;;;;;1.55;0.30;;;;;;;15.09;77.15;101431.47;5063474;28;20033;-69
2023/10/06 00:58:52;;;;;;;1.05;0.30;;;;;;;14.94;78.27;101420.66;5062901;28;20079;-69
2023/10/06 01:01:18;;;;;;;1.65;0.40;;;;;;;14.85;78.13;101422.38;5065032;28;20107;-69
2023/10/06 01:03:48;;;;;;;1.05;0.22;;;;;;;14.82;78.38;101427.91;5061265;28;20484;-69
2023/10/06 01:06:15;;;;;;;2.03;0.40;;;;;;;14.75;79.04;101421.63;5065039;28;20539;-68
2023/10/06 01:08:45;;;;;;;1.85;0.50;;;;;;;14.71;78.92;101417.63;5054481;28;20123;-69
2023/10/06 01:11:11;;;;;;;1.42;0.20;;;;;;;14.81;78.66;101425.44;5048465;28;20077;-69
2023/10/06 01:13:55;;;;;;;1.20;0.30;;;;;;;14.77;80.40;101422.28;5053184;28;20576;-69
2023/10/06 01:16:30;;;;;;;2.08;0.45;;;;;;;14.79;78.45;101419.53;5052150;28;20049;-69
2023/10/06 01:19:00;;;;;;;2.72;0.30;;;;;;;14.81;78.92;101415.78;5052023;28;20409;-69
2023/10/06 01:21:28;;;;;;;1.58;0.40;;;;;;;14.72;79.31;101416.66;5045378;28;20040;-69
2023/10/06 01:23:58;;;;;;;2.40;0.50;;;;;;;14.55;79.90;101422.72;5042715;28;20051;-69
2023/10/06 01:26:24;;;;;;;1.83;0.40;;;;;;;14.56;79.76;101414.72;5048074;28;20056;-69
2023/10/06 01:28:51;;;;;;;1.02;0.20;;;;;;;14.56;79.35;101404.22;5048061;28;20033;-69
2023/10/06 01:31:19;;;;;;;2.55;0.45;;;;;;;14.53;79.92;101406.31;5051694;28;20067;-69
2023/10/06 01:33:45;;;;;;;1.65;0.45;;;;;;;14.48;80.52;101413.78;5045498;28;20030;-69
2023/10/06 01:36:13;;;;;;;1.77;0.68;;;;;;;14.42;81.13;101414.38;5051433;28;20037;-68
2023/10/06 01:38:43;;;;;;;1.92;0.50;;;;;;;14.36;80.98;101407.88;5049561;28;20037;-69
2023/10/06 01:41:10;;;;;;;2.25;0.52;;;;;;;14.28;81.71;101411.25;5050828;28;20108;-69
2023/10/06 01:43:37;;;;;;;2.03;0.38;;;;;;;14.24;81.95;101414.28;5054954;28;20506;-68
2023/10/06 01:46:03;;;;;;;1.17;0.30;;;;;;;14.24;82.12;101419.53;5051198;28;20033;-68
2023/10/06 01:48:30;;;;;;;1.75;0.32;;;;;;;14.18;82.31;101414.88;5043196;28;20044;-68
2023/10/06 01:50:55;;;;;;;1.58;0.32;;;;;;;14.12;82.88;101423.34;5055344;28;20436;-69
2023/10/06 01:53:21;;;;;;;1.95;0.47;;;;;;;14.05;83.28;101420.47;5052813;28;20032;-68
2023/10/06 01:55:49;;;;;;;1.02;0.43;;;;;;;14.10;83.03;101423.47;5052119;28;20021;-69
2023/10/06 01:58:15;;;;;;;2.58;0.50;;;;;;;14.08;83.30;101414.94;5043509;28;20053;-69
2023/10/06 02:00:41;;;;;;;2.58;0.60;;;;;;;14.21;82.99;101420.66;5042135;28;20130;-68
2023/10/06 02:03:10;;;;;;;0.88;0.20;;;;;;;14.67;80.34;101415.47;5044880;28;20035;-69
2023/10/06 02:05:39;;;;;;;1.70;0.30;;;;;;;14.97;78.21;101417.75;5045721;28;20040;-69
2023/10/06 02:08:09;;;;;;;1.02;0.17;;;;;;;15.16;77.42;101414.13;5046398;28;20032;-69
2023/10/06 02:10:36;;;;;;;1.42;0.20;;;;;;;15.27;77.38;101408.63;5048265;28;20486;-69
2023/10/06 02:13:04;;;;;;;1.08;0.30;;;;;;;15.25;76.86;101418.47;5042364;28;20025;-69
2023/10/06 02:15:31;;;;;;;1.45;0.38;;;;;;;15.04;78.25;101426.66;5048230;28;20626;-69
2023/10/06 02:17:57;;;;;;;1.35;0.20;;;;;;;14.80;79.53;101432.50;5047366;28;20405;-69
2023/10/06 02:22:57;;;;;;;1.80;0.30;;;;;;;14.42;81.17;101427.50;5045842;28;20045;-68
2023/10/06 02:25:23;;;;;;;1.75;0.30;;;;;;;14.29;81.57;101420.75;5046253;28;20033;-68
2023/10/06 02:27:50;;;;;;;0.60;0.20;;;;;;;14.25;82.47;101415.94;5041688;28;20440;-69
2023/10/06 02:30:24;;;;;;;1.42;0.20;;;;;;;14.21;82.54;101422.44;5045953;28;20453;-69
2023/10/06 02:32:51;;;;;;;1.48;0.30;;;;;;;14.11;82.70;101425.13;5034267;28;20063;-69
2023/10/06 02:35:17;;;;;;;1.58;0.40;;;;;;;14.05;83.37;101428.31;5044439;28;20034;-69
2023/10/06 02:37:46;;;;;;;2.67;0.40;;;;;;;14.01;83.75;101426.97;5049613;28;20067;-69
2023/10/06 02:40:12;;;;;;;0.85;0.20;;;;;;;13.96;83.93;101429.19;5045702;28;20060;-69
2023/10/06 02:42:47;;;;;;;1.10;0.43;;;;;;;13.81;84.96;101422.72;5047882;28;20094;-69
2023/10/06 02:45:20;;;;;;;1.45;0.25;;;;;;;13.78;85.59;101433.50;5044985;28;20132;-69
2023/10/06 02:47:49;;;;;;;1.90;0.38;;;;;;;13.78;85.35;101428.25;5048427;28;20457;-69
2023/10/06 02:50:21;;;;;;;2.97;0.32;;;;;;;13.74;85.32;101419.84;5047013;28;20036;-69
2023/10/06 02:52:47;;;;;;;1.67;0.28;;;;;;;13.73;85.25;101417.38;5051926;28;20032;-69
2023/10/06 02:55:19;;;;;;;1.27;0.40;;;;;;;13.72;85.78;101413.09;5049891;28;20032;-69
2023/10/06 02:57:51;;;;;;;1.67;0.50;;;;;;;13.69;86.09;101400.31;5043811;28;20496;-69
2023/10/06 03:02:47;;;;;;;1.25;0.45;;;;;;;13.56;86.30;101416.34;5044898;28;20044;-69
2023/10/06 03:05:13;;;;;;;1.05;0.32;;;;;;;13.63;86.50;101420.03;5040437;28;20036;-68
2023/10/06 03:07:39;;;;;;;1.38;0.40;;;;;;;13.66;86.32;101422.38;5045541;28;20025;-69
2023/10/06 03:10:08;;;;;;;2.28;0.35;;;;;;;13.69;85.80;101426.50;5050421;28;20371;-69
2023/10/06 03:12:39;;;;;;;1.13;0.40;;;;;;;13.62;85.62;101428.88;5049892;28;20489;-69
2023/10/06 03:15:27;;;;;;;1.25;0.45;;;;;;;13.59;86.52;101429.16;5050353;28;20506;-69
2023/10/06 03:17:50;;;;;;;;;;;;;;;13.56;89.26;101435.47;5046477;28;20098;-68
2023/10/06 03:20:22;;;;;;;3.33;0.40;;;;;;;13.65;86.67;101436.44;5046034;28;19919;-69
2023/10/06 03:22:52;;;;;;;1.30;0.45;;;;;;;13.67;86.11;101441.53;5045289;28;20128;-69
2023/10/06 03:25:18;;;;;;;2.50;0.38;;;;;;;13.60;86.69;101442.09;5045953;28;20049;-69
2023/10/06 03:27:45;;;;;;;2.25;0.25;;;;;;;13.57;86.61;101434.53;5045081;28;20120;-69
2023/10/06 03:30:18;;;;;;;1.10;0.35;;;;;;;13.51;87.26;101437.69;5048230;28;20048;-69
2023/10/06 03:32:52;;;;;;;0.80;0.30;;;;;;;13.41;87.58;101442.09;5044970;28;20055;-69
2023/10/06 03:35:36;;;;;;;2.47;0.40;;;;;;;13.38;88.39;101434.53;5046037;28;20044;-68
2023/10/06 03:38:27;;;;;;;1.42;0.50;;;;;;;13.31;88.44;101451.75;5042528;28;20039;-69
2023/10/06 03:46:20;;;;;;;1.60;0.40;;;;;;;13.39;88.16;101438.81;5065695;28;20058;-69
2023/10/06 03:48:50;;;;;;;4.50;0.57;;;;;;;13.36;88.21;101443.50;5065705;28;20048;-69
2023/10/06 03:51:17;;;;;;;1.90;0.63;;;;;;;13.32;88.03;101435.09;5070591;28;20542;-69
2023/10/06 03:53:45;;;;;;;1.33;0.40;;;;;;;13.18;89.14;101448.59;5063986;28;20701;-69
2023/10/06 03:56:16;;;;;;;2.75;0.70;;;;;;;13.15;89.38;101446.22;5046918;28;20040;-69
2023/10/06 03:58:43;;;;;;;3.42;0.40;;;;;;;13.13;89.64;101442.94;5068142;28;20056;-69
2023/10/06 04:01:11;;;;;;;1.17;0.40;;;;;;;13.19;89.69;101451.09;5064255;28;20086;-68
2023/10/06 04:03:38;;;;;;;1.33;0.30;;;;;;;13.18;88.80;101446.00;5065547;28;20040;-69
2023/10/06 04:06:04;;;;;;;1.75;0.57;;;;;;;13.15;89.88;101456.69;5066614;28;20097;-69
2023/10/06 04:08:30;;;;;;;2.30;0.30;;;;;;;13.11;89.97;101455.31;5074047;28;20041;-69
2023/10/06 04:10:58;;;;;;;1.20;0.40;;;;;;;13.05;89.90;101455.88;5070988;28;20047;-68
2023/10/06 04:13:26;;;;;;;3.38;0.38;;;;;;;13.03;89.57;101449.94;5070558;28;20052;-69
2023/10/06 04:15:52;;;;;;;1.10;0.43;;;;;;;13.04;90.15;101448.97;5068485;28;20488;-68
2023/10/06 04:18:23;;;;;;;1.98;0.32;;;;;;;13.06;89.75;101452.28;5061278;28;20039;-69
2023/10/06 04:20:50;;;;;;;3.08;0.60;;;;;;;13.04;90.10;101448.97;5046492;28;20116;-68
2023/10/06 04:23:17;;;;;;;1.98;0.40;;;;;;;13.00;90.86;101447.59;5042082;28;20131;-68
2023/10/06 04:25:43;;;;;;;2.05;0.35;;;;;;;13.01;91.07;101455.31;5043708;28;20037;-69
2023/10/06 04:28:14;;;;;;;1.58;0.40;;;;;;;13.07;90.45;101446.09;5049203;28;20025;-68
2023/10/06 04:30:44;;;;;;;1.23;0.30;;;;;;;13.03;90.70;101449.94;5041390;28;20506;-69
2023/10/06 04:33:10;;;;;;;2.90;0.52;;;;;;;12.99;90.34;101456.41;5052002;28;20388;-69
2023/10/06 04:35:55;;;;;;;2.97;0.57;;;;;;;12.95;90.79;101454.06;5042495;28;20032;-69
2023/10/06 04:38:21;;;;;;;1.92;0.50;;;;;;;12.78;91.99;101457.31;5048185;28;20060;-69
2023/10/06 04:40:46;;;;;;;1.70;0.30;;;;;;;12.80;91.64;101452.78;5047921;28;20582;-69
2023/10/06 04:43:18;;;;;;;2.20;0.30;;;;;;;12.80;92.43;101458.00;5042604;28;20044;-69
2023/10/06 04:45:55;;;;;;;2.97;0.55;;;;;;;12.79;91.49;101451.13;5054090;28;20396;-68
2023/10/06 04:48:21;;;;;;;1.00;0.30;;;;;;;12.81;92.12;101449.22;5051262;28;20359;-68
2023/10/06 04:50:50;;;;;;;1.48;0.43;;;;;;;12.79;91.87;101455.53;5048172;28;20501;-69
2023/10/06 04:53:16;;;;;;;3.97;0.47;;;;;;;12.73;92.97;101456.94;5044310;28;20091;-69
2023/10/06 04:55:43;;;;;;;3.50;0.50;;;;;;;12.66;93.43;101449.75;5049671;28;20044;-69
2023/10/06 04:58:10;;;;;;;1.88;0.43;;;;;;;12.72;92.61;101443.97;5047082;28;20052;-69
2023/10/06 05:00:36;;;;;;;2.25;0.40;;;;;;;12.76;92.90;101456.63;5046843;28;20120;-68
2023/10/06 05:03:05;;;;;;;2.50;0.88;;;;;;;12.77;92.92;101462.69;5047037;28;20117;-68
2023/10/06 05:05:35;;;;;;;3.05;0.70;;;;;;;12.76;93.34;101461.84;5051132;28;20480;-68
2023/10/06 05:08:02;;;;;;;1.65;0.63;;;;;;;12.73;93.48;101462.16;5049703;28;20036;-69
2023/10/06 05:10:30;;;;;;;3.53;0.82;;;;;;;12.73;93.13;101467.38;5050871;28;20036;-68
2023/10/06 05:12:56;;;;;;;2.22;0.90;;;;;;;12.72;93.19;101465.72;5047452;28;20067;-69
2023/10/06 05:15:24;;;;;;;7.55;0.80;;;;;;;12.71;93.99;101474.53;5050828;28;20394;-68
2023/10/06 05:17:55;;;;;;;1.95;0.47;;;;;;;12.68;94.02;101484.44;5048707;28;20748;-68
2023/10/06 05:20:27;;;;;;;2.90;0.50;;;;;;;12.68;93.78;101466.13;5050288;28;20032;-68
2023/10/06 05:22:53;;;;;;;7.07;0.82;;;;;;;12.68;94.22;101480.03;5048956;28;20025;-68
2023/10/06 05:25:19;;;;;;;1.02;0.43;;;;;;;12.71;94.21;101477.16;5049208;28;20049;-69
2023/10/06 05:27:49;;;;;;;2.00;0.38;;;;;;;12.73;94.23;101490.91;5045566;28;20477;-68
2023/10/06 05:30:14;;;;;;;1.95;0.35;;;;;;;12.72;93.71;101491.06;5048766;28;20041;-68
2023/10/06 05:32:44;;;;;;;1.67;0.40;;;;;;;12.76;94.61;101497.66;5042100;28;20129;-69
2023/10/06 05:35:13;;;;;;;3.75;0.57;;;;;;;12.78;94.67;101491.31;5039550;28;20036;-68
2023/10/06 05:37:46;;;;;;;2.45;0.40;;;;;;;12.78;94.35;101491.31;5047226;28;23210;-68
2023/10/06 05:40:15;;;;;;;1.88;0.40;;;;;;;12.83;94.34;101493.53;5049591;28;20497;-69
2023/10/06 05:42:41;;;;;;;4.20;0.55;;;;;;;12.89;94.60;101495.63;5044345;28;20400;-68
2023/10/06 05:45:18;;;;;;;3.08;0.50;;;;;;;12.89;94.23;101504.28;5050686;28;20037;-69
2023/10/06 05:47:48;;;;;;;1.45;0.40;;;;;;;12.83;94.89;101509.22;5043088;28;20819;-68
2023/10/06 05:50:27;;;;;;;1.55;0.50;;;;;;;12.99;93.54;101504.31;5042852;28;20383;-68
2023/10/06 05:53:01;;;;;;;2.80;0.52;;;;;;;13.19;93.46;101515.69;5043956;28;20029;-68
2023/10/06 05:55:35;;;;;;;3.90;0.50;;;;;;;13.26;92.71;101517.59;5048536;28;20044;-68
2023/10/06 05:58:09;;;;;;;3.10;0.52;;;;;;;13.32;91.66;101526.69;5037448;28;20044;-68
2023/10/06 06:00:43;;;;;;;5.85;0.45;;;;;;;13.35;91.98;101520.34;5046957;28;20048;-68
2023/10/06 06:03:13;;;;;;;2.90;0.63;;;;;;;13.40;92.34;101528.63;5042598;28;20021;-68
2023/10/06 06:05:39;;;;;;;3.60;0.35;;;;;;;13.45;92.88;101537.72;5043789;28;20044;-69
2023/10/06 06:08:08;;;;;;;1.90;0.40;;;;;;;13.49;92.11;101533.88;5053497;28;20025;-69
2023/10/06 06:10:37;;;;;;;2.10;0.43;;;;;;;13.54;92.70;101549.19;5040672;28;20106;-69
2023/10/06 06:13:03;;;;;;;2.28;0.43;;;;;;;13.67;91.91;101541.03;5050827;28;20167;-68
2023/10/06 06:15:29;;;;;;;2.80;0.43;;;;;;;13.76;91.80;101548.06;5050009;28;20116;-68
2023/10/06 06:17:54;;;;;;;2.20;0.50;;;;;;;13.86;91.83;101552.31;5050213;28;20078;-69
2023/10/06 06:20:23;;;;;;;2.20;0.43;;;;;;;13.96;91.73;101557.56;5043372;28;20112;-68
2023/10/06 06:22:59;;;;;;;1.10;0.35;;;;;;;14.06;91.56;101553.13;5050053;28;20554;-68
2023/10/06 06:25:28;;;;;;;1.85;0.52;;;;;;;14.18;91.77;101565.09;5047329;28;20560;-68
2023/10/06 06:27:54;;;;;;;4.93;0.40;;;;;;;14.34;91.52;101561.06;5045995;28;20029;-68
2023/10/06 06:30:24;;;;;;;1.40;0.40;;;;;;;14.46;90.66;101565.19;5045898;28;20047;-70
2023/10/06 06:32:52;;;;;;;3.85;0.57;;;;;;;14.74;88.93;101573.91;5049806;28;20032;-70
2023/10/06 06:35:22;;;;;;;3.75;0.32;;;;;;;14.93;87.91;101569.41;5049513;28;20037;-69
2023/10/06 06:37:51;;;;;;;1.42;0.43;;;;;;;15.06;88.05;101569.06;5044638;28;20504;-70
2023/10/06 06:40:20;;;;;;;4.72;0.60;;;;;;;15.15;88.01;101572.59;5041585;28;20036;-70
2023/10/06 06:42:51;;;;;;;5.15;0.60;;;;;;;15.25;87.92;101576.81;5045412;28;20029;-70
2023/10/06 06:45:17;;;;;;;1.83;0.30;;;;;;;15.34;87.57;101577.72;5041856;28;20059;-70
2023/10/06 06:47:43;;;;;;;2.80;0.47;;;;;;;15.43;87.43;101574.22;5037654;28;20470;-69
2023/10/06 06:50:17;;;;;;;2.65;0.40;;;;;;;15.50;87.40;101580.53;5045205;28;20052;-70
2023/10/06 06:52:45;;;;;;;2.13;0.60;;;;;;;15.57;87.74;101579.00;5048377;28;20148;-69
2023/10/06 06:55:14;;;;;;;1.85;0.30;;;;;;;15.69;87.74;101586.63;5045509;28;20544;-70
2023/10/06 06:57:43;;;;;;;2.17;0.30;;;;;;;15.82;87.71;101589.69;5041999;28;20053;-69
2023/10/06 07:00:17;;;;;;;2.42;0.30;;;;;;;15.91;87.31;101587.00;5049551;28;20360;-69
2023/10/06 07:02:47;;;;;;;1.90;0.30;;;;;;;16.05;87.31;101588.25;5046854;28;20033;-70
2023/10/06 07:05:14;;;;;;;1.30;0.30;;;;;;;16.11;87.66;101590.25;5045318;28;20047;-70
2023/10/06 07:07:42;;;;;;;1.95;0.45;;;;;;;16.16;87.67;101590.59;5048550;28;20056;-70
2023/10/06 07:10:15;;;;;;;1.67;0.30;;;;;;;16.27;87.44;101587.72;5043779;28;20508;-69
2023/10/06 07:12:42;;;;;;;1.63;0.45;;;;;;;16.39;86.75;101592.75;5045672;28;20487;-70
2023/10/06 07:15:14;;;;;;;4.85;0.40;;;;;;;16.51;86.61;101597.59;5042020;28;20341;-70
2023/10/06 07:17:51;;;;;;;2.33;0.43;;;;;;;16.59;87.39;101594.97;5047173;28;20044;-70
2023/10/06 07:20:26;;;;;;;3.22;0.45;;;;;;;16.77;86.15;101594.94;5046070;28;20432;-70
2023/10/06 07:22:55;;;;;;;1.77;0.50;;;;;;;16.90;84.37;101600.59;5045409;28;20369;-71
2023/10/06 07:25:24;;;;;;;1.48;0.30;;;;;;;17.06;83.01;101604.25;5045841;28;20045;-70
2023/10/06 07:27:50;;;;;;;2.22;0.73;;;;;;;17.20;82.19;101603.66;5042913;28;20427;-71
2023/10/06 07:30:16;;;;;;;1.85;0.30;;;;;;;17.26;80.24;101600.38;5045589;28;20044;-70
2023/10/06 07:32:46;;;;;;;0.95;0.43;;;;;;;17.36;79.38;101605.53;5047309;28;20496;-70
2023/10/06 07:35:17;;;;;;;2.70;0.40;;;;;;;17.43;78.72;101607.34;5044841;28;20120;-68
2023/10/06 07:37:47;;;;;;;1.13;0.30;;;;;;;17.69;76.14;101609.06;5048562;28;20557;-68
2023/10/06 07:40:14;;;;;;;1.17;0.20;;;;;;;17.84;74.21;101604.78;5042160;28;20045;-69
2023/10/06 07:42:45;;;;;;;1.48;0.20;;;;;;;17.98;74.44;101612.03;5045925;28;20032;-68
2023/10/06 07:45:12;;;;;;;0.80;0.20;;;;;;;18.11;73.30;101606.25;5043329;28;20112;-68
2023/10/06 07:47:42;;;;;;;2.65;0.20;;;;;;;18.04;73.94;101614.00;5036770;28;20037;-68
2023/10/06 07:50:09;;;;;;;1.75;0.13;;;;;;;18.03;73.55;101615.00;5041811;28;20108;-67
2023/10/06 07:52:37;;;;;;;2.53;0.35;;;;;;;18.03;73.70;101614.16;5047588;28;20094;-68
2023/10/06 07:55:09;;;;;;;0.95;0.20;;;;;;;18.02;73.40;101612.53;5047344;28;20112;-68
2023/10/06 07:57:36;;;;;;;1.65;0.28;;;;;;;18.05;74.21;101618.28;5047014;28;20049;-68
2023/10/06 08:00:06;;;;;;;1.15;0.20;;;;;;;18.03;75.03;101619.44;5042515;28;20450;-67
2023/10/06 08:02:33;;;;;;;1.08;0.20;;;;;;;18.01;75.67;101616.16;5046098;28;20036;-68
2023/10/06 08:04:59;;;;;;;0.75;0.20;;;;;;;18.01;75.97;101616.97;5044276;28;20036;-68
2023/10/06 08:07:27;;;;;;;0.90;0.30;;;;;;;18.08;75.80;101625.03;5045642;28;20032;-68
2023/10/06 08:09:59;;;;;;;1.02;0.25;;;;;;;18.23;74.82;101626.03;5047979;28;20127;-67
2023/10/06 08:12:27;;;;;;;1.13;0.20;;;;;;;18.32;74.69;101626.84;5050836;28;20480;-67
2023/10/06 08:14:52;;;;;;;1.05;0.20;;;;;;;18.45;74.06;101632.41;5044790;28;20036;-68
2023/10/06 08:17:21;;;;;;;4.78;0.45;;;;;;;18.56;73.40;101634.72;5043654;28;20037;-68
2023/10/06 08:19:46;;;;;;;1.00;0.20;;;;;;;18.58;73.37;101635.38;5037507;28;20064;-68
2023/10/06 08:22:13;;;;;;;2.20;0.28;;;;;;;18.61;73.64;101640.34;5049201;28;20328;-68
2023/10/06 08:24:39;;;;;;;0.75;0.30;;;;;;;18.66;72.64;101640.66;5048884;28;20025;-68
2023/10/06 08:27:07;;;;;;;3.75;0.30;;;;;;;18.77;71.65;101642.94;5044015;28;20027;-68
2023/10/06 08:29:33;;;;;;;1.40;0.30;;;;;;;18.84;70.81;101643.91;5044100;28;20029;-68
2023/10/06 08:31:59;;;;;;;0.88;0.25;;;;;;;18.92;70.17;101640.41;5052171;28;20039;-67
2023/10/06 08:34:25;;;;;;;0.80;0.20;;;;;;;18.93;69.68;101635.94;5048786;28;20392;-68
2023/10/06 08:36:51;;;;;;;1.75;0.20;;;;;;;18.90;70.40;101643.22;5043552;28;20041;-68
2023/10/06 08:39:17;;;;;;;2.20;0.45;;;;;;;18.86;71.08;101644.59;5049416;28;20044;-68
2023/10/06 08:41:45;;;;;;;1.38;0.30;;;;;;;18.82;71.25;101643.28;5044716;28;20124;-68
2023/10/06 08:44:12;;;;;;;1.48;0.43;;;;;;;18.78;71.33;101644.59;5046178;28;20123;-68
2023/10/06 08:46:44;;;;;;;3.60;0.30;;;;;;;19.09;67.77;101644.63;5049932;28;20412;-67
2023/10/06 08:49:11;;;;;;;1.17;0.57;;;;;;;19.11;69.12;101642.66;5052020;28;20108;-68
2023/10/06 08:51:37;;;;;;;1.77;0.45;;;;;;;18.92;68.46;101652.78;5048242;28;20400;-68
2023/10/06 08:54:05;;;;;;;5.68;0.25;;;;;;;19.09;67.18;101654.38;5048931;28;20035;-68
2023/10/06 08:56:33;;;;;;;1.45;0.30;;;;;;;19.20;67.22;101648.72;5044214;28;20064;-67
2023/10/06 08:59:00;;;;;;;1.63;0.30;;;;;;;19.18;68.20;101648.91;5042405;28;20044;-68
2023/10/06 09:01:28;;;;;;;1.55;0.20;;;;;;;19.07;68.93;101651.09;5042764;28;20034;-67
2023/10/06 09:03:55;;;;;;;0.95;0.20;;;;;;;19.08;68.67;101647.44;5051627;28;20047;-68
2023/10/06 09:06:20;;;;;;;1.05;0.10;;;;;;;19.17;67.74;101652.53;5049365;28;20036;-67
2023/10/06 09:08:46;;;;;;;1.63;0.30;;;;;;;19.15;67.04;101649.25;5050130;28;20027;-68
2023/10/06 09:11:11;;;;;;;2.53;0.30;;;;;;;19.21;67.90;101647.72;5049235;28;20408;-68
2023/10/06 09:13:37;;;;;;;0.80;0.20;;;;;;;19.26;68.50;101650.69;5051455;28;20029;-68
2023/10/06 09:16:07;;;;;;;0.73;0.10;;;;;;;19.18;68.46;101648.06;5051127;28;20431;-68
2023/10/06 09:18:38;;;;;;;1.48;0.20;;;;;;;19.11;68.55;101649.75;5049741;28;20025;-68
2023/10/06 09:21:21;;;;;;;1.27;0.25;;;;;;;19.26;66.67;101645.41;5049845;28;20083;-68
2023/10/06 09:23:47;;;;;;;1.35;0.20;;;;;;;19.42;67.80;101641.81;5044315;28;20066;-67
2023/10/06 09:26:19;;;;;;;2.00;0.40;;;;;;;19.48;67.60;101641.97;5046259;28;20576;-68
2023/10/06 09:28:50;;;;;;;3.05;0.40;;;;;;;19.57;67.03;101640.13;5050814;28;20033;-68
2023/10/06 09:31:18;;;;;;;1.88;0.45;;;;;;;19.59;67.74;101639.94;5049972;28;20028;-67
2023/10/06 09:33:48;;;;;;;2.47;0.25;;;;;;;19.64;67.71;101642.88;5050863;28;20029;-67
2023/10/06 09:36:21;;;;;;;1.65;0.20;;;;;;;19.60;66.73;101631.03;5047548;28;20108;-68
2023/10/06 09:38:47;;;;;;;0.80;0.20;;;;;;;19.51;67.43;101643.47;5045145;28;20037;-70
2023/10/06 09:41:13;;;;;;;0.70;0.20;;;;;;;19.45;67.52;101639.66;5045492;28;20079;-68
2023/10/06 09:43:39;;;;;;;1.13;0.20;;;;;;;19.44;67.02;101639.84;5046054;28;20558;-68
2023/10/06 09:46:07;;;;;;;1.02;0.20;;;;;;;19.43;67.38;101641.66;5050821;28;20037;-68
2023/10/06 09:48:37;;;;;;;0.88;0.20;;;;;;;19.44;67.46;101640.66;5045237;28;20034;-67
2023/10/06 09:51:08;;;;;;;1.48;0.30;;;;;;;19.48;67.13;101644.59;5046528;28;20028;-68
2023/10/06 09:53:38;;;;;;;0.40;0.20;;;;;;;19.53;67.62;101642.28;5047738;28;20033;-68
2023/10/06 09:56:11;;;;;;;0.70;0.30;;;;;;;19.58;66.91;101638.31;5041649;28;20094;-68
2023/10/06 09:58:38;;;;;;;1.10;0.20;;;;;;;19.60;66.45;101641.59;5047549;28;20044;-68
2023/10/06 10:01:04;;;;;;;1.58;0.20;;;;;;;19.61;66.91;101638.78;5041760;28;20465;-68
2023/10/06 10:03:30;;;;;;;2.47;0.40;;;;;;;19.59;66.97;101630.19;5047454;28;20070;-68
2023/10/06 10:06:00;;;;;;;1.45;0.40;;;;;;;19.58;67.17;101638.31;5039599;28;20029;-68
2023/10/06 10:08:28;;;;;;;1.63;0.50;;;;;;;19.64;66.55;101627.84;5038857;28;20489;-68
2023/10/06 10:10:56;;;;;;;0.95;0.20;;;;;;;19.78;66.01;101634.22;5042279;28;20059;-68
2023/10/06 10:13:37;;;;;;;1.67;0.28;;;;;;;20.02;64.70;101628.72;5044263;28;20036;-68
2023/10/06 10:16:28;;;;;;;0.80;0.20;;;;;;;20.12;64.99;101631.94;5043236;28;20044;-69
2023/10/06 10:19:07;;;;;;;0.88;0.25;;;;;;;20.06;65.10;101624.72;5047019;28;20024;-69
2023/10/06 10:21:34;;;;;;;1.45;0.35;;;;;;;20.13;65.14;101616.88;5038717;28;20035;-69
2023/10/06 10:24:12;;;;;;;0.85;0.20;;;;;;;20.23;64.12;101614.00;5048575;28;20021;-69
2023/10/06 10:26:39;;;;;;;1.92;0.38;;;;;;;20.18;65.40;101610.06;5044755;28;20033;-68
2023/10/06 10:29:15;;;;;;;1.05;0.20;;;;;;;20.16;64.91;101609.41;5041821;28;20072;-68
2023/10/06 10:31:56;;;;;;;1.00;0.10;;;;;;;20.26;63.37;101613.63;5047196;28;20090;-69
2023/10/06 10:34:22;;;;;;;1.67;0.40;;;;;;;20.29;62.39;101606.16;5049331;28;20048;-70
2023/10/06 10:37:08;;;;;;;0.70;0.20;;;;;;;20.31;60.61;101603.31;5042076;28;20650;-69
2023/10/06 10:39:59;;;;;;;0.85;0.20;;;;;;;20.32;60.99;101600.47;5042349;28;20405;-69
2023/10/06 10:42:57;;;;;;;2.15;0.40;;;;;;;20.27;61.52;101596.75;5045307;28;20037;-69
2023/10/06 10:45:34;;;;;;;0.90;0.20;;;;;;;20.26;62.48;101600.41;5040807;28;20059;-69
2023/10/06 10:48:15;;;;;;;3.33;0.20;;;;;;;20.36;63.24;101591.16;5042092;28;20078;-69
2023/10/06 10:50:53;;;;;;;0.43;0.10;;;;;;;20.34;62.14;101585.25;5041900;28;20044;-69
2023/10/06 10:53:20;;;;;;;1.83;0.20;;;;;;;20.33;63.30;101591.53;5046388;28;20033;-69
2023/10/06 10:55:47;;;;;;;1.25;0.20;;;;;;;20.28;63.59;101582.53;5046378;28;20098;-69
2023/10/06 10:58:44;;;;;;;2.00;0.30;;;;;;;20.25;63.75;101578.41;5049250;28;20409;-69
2023/10/06 11:01:29;;;;;;;0.98;0.20;;;;;;;20.28;62.93;101577.22;5039720;28;20025;-70
2023/10/06 11:04:13;;;;;;;2.53;0.20;;;;;;;20.41;63.58;101577.44;5044908;28;20159;-69
2023/10/06 11:06:50;;;;;;;0.80;0.20;;;;;;;20.50;62.82;101565.75;5043215;28;20537;-69
2023/10/06 11:09:26;;;;;;;2.42;0.30;;;;;;;20.64;62.64;101570.22;5043219;28;20033;-69
2023/10/06 11:12:00;;;;;;;2.90;0.20;;;;;;;20.64;62.82;101567.56;5039435;28;20052;-70
2023/10/06 11:14:28;;;;;;;1.30;0.28;;;;;;;20.59;62.80;101566.47;5045281;28;20043;-69
2023/10/06 11:17:05;;;;;;;1.77;0.30;;;;;;;20.57;62.73;101566.66;5044236;28;20478;-69
2023/10/06 11:19:32;;;;;;;2.78;0.25;;;;;;;20.62;61.14;101566.94;5047097;28;20029;-70
2023/10/06 11:22:11;;;;;;;3.63;0.20;;;;;;;20.85;60.19;101559.69;5048695;28;20029;-69
2023/10/06 11:24:39;;;;;;;1.10;0.30;;;;;;;20.80;61.16;101554.13;5046059;28;20566;-69
2023/10/06 11:27:14;;;;;;;1.88;0.30;;;;;;;20.76;60.76;101557.34;5043297;28;20041;-70
2023/10/06 11:29:40;;;;;;;0.60;0.20;;;;;;;20.78;60.50;101553.50;5046432;28;20040;-70
2023/10/06 11:32:06;;;;;;;1.55;0.20;;;;;;;21.03;60.11;101542.56;5041398;28;20037;-69
2023/10/06 11:34:32;;;;;;;0.82;0.25;;;;;;;20.91;61.11;101538.75;5043585;28;20057;-69
2023/10/06 11:36:58;;;;;;;2.28;0.28;;;;;;;20.80;61.31;101532.94;5046119;28;20041;-70
2023/10/06 11:39:29;;;;;;;0.82;0.30;;;;;;;20.73;62.10;101529.41;5043071;28;20079;-69
2023/10/06 11:42:23;;;;;;;1.33;0.20;;;;;;;20.68;61.76;101521.19;5049451;28;20040;-69
2023/10/06 11:44:52;;;;;;;1.70;0.30;;;;;;;20.71;62.04;101525.31;5044620;28;20120;-69
2023/10/06 11:47:27;;;;;;;1.30;0.20;;;;;;;20.77;62.55;101517.44;5047838;28;20520;-69